AJM1965 MKJP-KMCO
Flight info
| Callsign | AJM1965 |
|---|---|
| Flight time | 1h 55m |
| Altitude | 36000 |
| Route | LEXUV5 RADOK UT172 BEMOL UL417 LENAX UL795 ALTIB UM779 ZEUSS DCT OCTAL MUNGI1 |
| Aircraft | A319/M-SDE3FGHIRWY/LB1 |
Departure
| Time | 2026-04-25 19:21 |
|---|---|
| Airport | Norman Manley International Airport (MKJP) |
Arrival
| Time | 2026-04-25 21:17 |
|---|---|
| Airport | Orlando International Airport (KMCO) |
| Time | Latitude | Longitude | Altitude | Speed | Heading |
|---|---|---|---|---|---|
| 2026-04-25 18:42 | 17.93571 | -76.77981 | 19 ft | 0 kts | 355° |
| 2026-04-25 19:13 | 17.93572 | -76.77981 | 19 ft | 0 kts | 355° |
| 2026-04-25 19:13 | 17.93564 | -76.77980 | 19 ft | 1 kts | 356° |
| 2026-04-25 19:13 | 17.93553 | -76.77974 | 19 ft | 2 kts | 298° |
| 2026-04-25 19:13 | 17.93551 | -76.77959 | 19 ft | 0 kts | 245° |
| 2026-04-25 19:14 | 17.93555 | -76.77954 | 19 ft | 1 kts | 233° |
| 2026-04-25 19:14 | 17.93556 | -76.77952 | 19 ft | 0 kts | 236° |
| 2026-04-25 19:16 | 17.93552 | -76.77957 | 19 ft | 5 kts | 230° |
| 2026-04-25 19:16 | 17.93500 | -76.77985 | 18 ft | 9 kts | 201° |
| 2026-04-25 19:16 | 17.93460 | -76.78052 | 18 ft | 15 kts | 283° |
| 2026-04-25 19:16 | 17.93493 | -76.78167 | 18 ft | 17 kts | 291° |
| 2026-04-25 19:17 | 17.93551 | -76.78295 | 18 ft | 20 kts | 293° |
| 2026-04-25 19:17 | 17.93605 | -76.78432 | 18 ft | 20 kts | 291° |
| 2026-04-25 19:17 | 17.93659 | -76.78569 | 18 ft | 20 kts | 289° |
| 2026-04-25 19:17 | 17.93710 | -76.78708 | 18 ft | 20 kts | 292° |
| 2026-04-25 19:18 | 17.93765 | -76.78842 | 18 ft | 19 kts | 299° |
| 2026-04-25 19:18 | 17.93815 | -76.78974 | 18 ft | 19 kts | 291° |
| 2026-04-25 19:18 | 17.93866 | -76.79105 | 18 ft | 19 kts | 292° |
| 2026-04-25 19:18 | 17.93917 | -76.79240 | 18 ft | 19 kts | 291° |
| 2026-04-25 19:19 | 17.93969 | -76.79375 | 18 ft | 20 kts | 291° |
| 2026-04-25 19:19 | 17.94021 | -76.79511 | 18 ft | 20 kts | 294° |
| 2026-04-25 19:19 | 17.94076 | -76.79647 | 18 ft | 20 kts | 289° |
| 2026-04-25 19:19 | 17.94096 | -76.79742 | 18 ft | 20 kts | 279° |
| 2026-04-25 19:20 | 17.94077 | -76.79916 | 16 ft | 17 kts | 199° |
| 2026-04-25 19:20 | 17.94008 | -76.79885 | 17 ft | 9 kts | 131° |
| 2026-04-25 19:20 | 17.93981 | -76.79833 | 18 ft | 1 kts | 109° |
| 2026-04-25 19:21 | 17.93956 | -76.79761 | 19 ft | 40 kts | 111° |
| 2026-04-25 19:21 | 17.93346 | -76.78198 | 85 ft | 175 kts | 113° |
| 2026-04-25 19:21 | 17.92880 | -76.77034 | 894 ft | 175 kts | 115° |
| 2026-04-25 19:22 | 17.92402 | -76.75907 | 1842 ft | 172 kts | 124° |
| 2026-04-25 19:22 | 17.91510 | -76.75063 | 2478 ft | 180 kts | 156° |
| 2026-04-25 19:22 | 17.88922 | -76.75346 | 3446 ft | 214 kts | 204° |
| 2026-04-25 19:23 | 17.87530 | -76.76025 | 4004 ft | 230 kts | 204° |
| 2026-04-25 19:23 | 17.84555 | -76.77389 | 5633 ft | 239 kts | 203° |
| 2026-04-25 19:23 | 17.83095 | -76.78230 | 6429 ft | 242 kts | 223° |
| 2026-04-25 19:24 | 17.82164 | -76.79655 | 7196 ft | 244 kts | 251° |
| 2026-04-25 19:24 | 17.81987 | -76.81448 | 7776 ft | 257 kts | 279° |
| 2026-04-25 19:24 | 17.83341 | -76.85189 | 8802 ft | 288 kts | 292° |
| 2026-04-25 19:25 | 17.85303 | -76.88841 | 10394 ft | 296 kts | 316° |
| 2026-04-25 19:25 | 17.87093 | -76.89985 | 10886 ft | 313 kts | 340° |
| 2026-04-25 19:25 | 17.89303 | -76.90287 | 11231 ft | 334 kts | 359° |
| 2026-04-25 19:26 | 17.91709 | -76.90212 | 11606 ft | 352 kts | 0° |
| 2026-04-25 19:26 | 17.94180 | -76.90112 | 12176 ft | 362 kts | 0° |
| 2026-04-25 19:26 | 17.96696 | -76.90021 | 12971 ft | 365 kts | 360° |
| 2026-04-25 19:26 | 17.99250 | -76.89941 | 13734 ft | 368 kts | 359° |
| 2026-04-25 19:27 | 18.01831 | -76.89870 | 14449 ft | 372 kts | 359° |
| 2026-04-25 19:27 | 18.03557 | -76.89824 | 14927 ft | 374 kts | 359° |
| 2026-04-25 19:27 | 18.07027 | -76.89736 | 15860 ft | 379 kts | 359° |
| 2026-04-25 19:27 | 18.09655 | -76.89671 | 16535 ft | 382 kts | 359° |
| 2026-04-25 19:28 | 18.12353 | -76.89604 | 17202 ft | 385 kts | 359° |
| 2026-04-25 19:28 | 18.15059 | -76.89538 | 17846 ft | 388 kts | 358° |
| 2026-04-25 19:28 | 18.17757 | -76.89471 | 18468 ft | 391 kts | 358° |
| 2026-04-25 19:28 | 18.20488 | -76.89402 | 19081 ft | 394 kts | 358° |
| 2026-04-25 19:29 | 18.23248 | -76.89333 | 19685 ft | 397 kts | 358° |
| 2026-04-25 19:29 | 18.25981 | -76.89264 | 20261 ft | 399 kts | 358° |
| 2026-04-25 19:29 | 18.28768 | -76.89194 | 20829 ft | 402 kts | 357° |
| 2026-04-25 19:29 | 18.31583 | -76.89123 | 21380 ft | 404 kts | 357° |
| 2026-04-25 19:30 | 18.34389 | -76.89053 | 21913 ft | 406 kts | 357° |
| 2026-04-25 19:30 | 18.37216 | -76.88983 | 22441 ft | 409 kts | 357° |
| 2026-04-25 19:30 | 18.40058 | -76.88952 | 23069 ft | 405 kts | 354° |
| 2026-04-25 19:30 | 18.42866 | -76.89121 | 23591 ft | 404 kts | 349° |
| 2026-04-25 19:31 | 18.45628 | -76.89518 | 24038 ft | 403 kts | 345° |
| 2026-04-25 19:31 | 18.48402 | -76.90101 | 24466 ft | 405 kts | 343° |
| 2026-04-25 19:31 | 18.51160 | -76.90720 | 24861 ft | 407 kts | 343° |
| 2026-04-25 19:31 | 18.53939 | -76.91348 | 25257 ft | 410 kts | 343° |
| 2026-04-25 19:32 | 18.56733 | -76.91977 | 25669 ft | 412 kts | 343° |
| 2026-04-25 19:32 | 18.59541 | -76.92608 | 26049 ft | 414 kts | 343° |
| 2026-04-25 19:32 | 18.62353 | -76.93237 | 26405 ft | 417 kts | 342° |
| 2026-04-25 19:32 | 18.64273 | -76.93666 | 26649 ft | 418 kts | 342° |
| 2026-04-25 19:33 | 18.68063 | -76.94513 | 27109 ft | 421 kts | 342° |
| 2026-04-25 19:33 | 18.70942 | -76.95156 | 27444 ft | 424 kts | 342° |
| 2026-04-25 19:33 | 18.73815 | -76.95798 | 27767 ft | 426 kts | 342° |
| 2026-04-25 19:33 | 18.76728 | -76.96448 | 28086 ft | 428 kts | 342° |
| 2026-04-25 19:34 | 18.79642 | -76.97102 | 28404 ft | 430 kts | 342° |
| 2026-04-25 19:34 | 18.82589 | -76.97767 | 28718 ft | 432 kts | 342° |
| 2026-04-25 19:34 | 18.85551 | -76.98434 | 29023 ft | 434 kts | 342° |
| 2026-04-25 19:34 | 18.88512 | -76.99101 | 29374 ft | 434 kts | 342° |
| 2026-04-25 19:35 | 18.91461 | -76.99764 | 29779 ft | 433 kts | 342° |
| 2026-04-25 19:35 | 18.94410 | -77.00426 | 30169 ft | 431 kts | 341° |
| 2026-04-25 19:35 | 18.97341 | -77.01084 | 30536 ft | 430 kts | 341° |
| 2026-04-25 19:35 | 19.00245 | -77.01737 | 30896 ft | 429 kts | 341° |
| 2026-04-25 19:36 | 19.03179 | -77.02397 | 31242 ft | 428 kts | 341° |
| 2026-04-25 19:36 | 19.06124 | -77.03060 | 31578 ft | 427 kts | 341° |
| 2026-04-25 19:36 | 19.09035 | -77.03715 | 31904 ft | 426 kts | 341° |
| 2026-04-25 19:36 | 19.11947 | -77.04369 | 32212 ft | 426 kts | 341° |
| 2026-04-25 19:37 | 19.14826 | -77.05012 | 32496 ft | 426 kts | 341° |
| 2026-04-25 19:37 | 19.17734 | -77.05663 | 32788 ft | 425 kts | 341° |
| 2026-04-25 19:37 | 19.20601 | -77.06306 | 33079 ft | 424 kts | 340° |
| 2026-04-25 19:37 | 19.23474 | -77.06953 | 33363 ft | 423 kts | 340° |
| 2026-04-25 19:38 | 19.26358 | -77.07603 | 33632 ft | 422 kts | 340° |
| 2026-04-25 19:38 | 19.29206 | -77.08245 | 33890 ft | 422 kts | 340° |
| 2026-04-25 19:38 | 19.32068 | -77.08891 | 34149 ft | 421 kts | 340° |
| 2026-04-25 19:38 | 19.34928 | -77.09603 | 34374 ft | 418 kts | 338° |
| 2026-04-25 19:39 | 19.37740 | -77.10405 | 34555 ft | 418 kts | 337° |
| 2026-04-25 19:39 | 19.40553 | -77.11223 | 34713 ft | 419 kts | 337° |
| 2026-04-25 19:39 | 19.43355 | -77.12041 | 34861 ft | 420 kts | 337° |
| 2026-04-25 19:39 | 19.46203 | -77.12872 | 35020 ft | 421 kts | 337° |
| 2026-04-25 19:40 | 19.49034 | -77.13696 | 35181 ft | 422 kts | 337° |
| 2026-04-25 19:40 | 19.51832 | -77.14511 | 35333 ft | 422 kts | 337° |
| 2026-04-25 19:40 | 19.54701 | -77.15346 | 35486 ft | 423 kts | 337° |
| 2026-04-25 19:40 | 19.57546 | -77.16173 | 35634 ft | 423 kts | 337° |
| 2026-04-25 19:41 | 19.60344 | -77.16988 | 35767 ft | 424 kts | 337° |
| 2026-04-25 19:41 | 19.63229 | -77.17828 | 35896 ft | 424 kts | 337° |
| 2026-04-25 19:41 | 19.66056 | -77.18652 | 36012 ft | 425 kts | 337° |
| 2026-04-25 19:41 | 19.67964 | -77.19207 | 36001 ft | 426 kts | 337° |
| 2026-04-25 19:42 | 19.74632 | -77.21148 | 35945 ft | 426 kts | 337° |
| 2026-04-25 19:42 | 19.80314 | -77.22804 | 35925 ft | 426 kts | 337° |
| 2026-04-25 19:43 | 19.86058 | -77.24480 | 35917 ft | 425 kts | 337° |
| 2026-04-25 19:43 | 19.91735 | -77.26142 | 35914 ft | 425 kts | 337° |
| 2026-04-25 19:44 | 19.97432 | -77.27810 | 35913 ft | 425 kts | 337° |
| 2026-04-25 19:44 | 20.03145 | -77.29479 | 35913 ft | 423 kts | 336° |
| 2026-04-25 19:45 | 20.08824 | -77.31143 | 35913 ft | 422 kts | 336° |
| 2026-04-25 19:45 | 20.14506 | -77.32804 | 35914 ft | 423 kts | 336° |
| 2026-04-25 19:46 | 20.20167 | -77.34455 | 35916 ft | 422 kts | 336° |
| 2026-04-25 19:46 | 20.25841 | -77.36118 | 35919 ft | 422 kts | 336° |
| 2026-04-25 19:47 | 20.31535 | -77.37790 | 35921 ft | 422 kts | 336° |
| 2026-04-25 19:47 | 20.37174 | -77.39446 | 35923 ft | 422 kts | 336° |
| 2026-04-25 19:48 | 20.42855 | -77.41118 | 35925 ft | 422 kts | 336° |
| 2026-04-25 19:48 | 20.48510 | -77.42783 | 35927 ft | 422 kts | 336° |
| 2026-04-25 19:49 | 20.53238 | -77.44177 | 35929 ft | 422 kts | 336° |
| 2026-04-25 19:49 | 20.59853 | -77.46091 | 35934 ft | 422 kts | 336° |
| 2026-04-25 19:50 | 20.68367 | -77.48524 | 35938 ft | 422 kts | 336° |
| 2026-04-25 19:51 | 20.74043 | -77.50150 | 35938 ft | 421 kts | 336° |
| 2026-04-25 19:51 | 20.79697 | -77.51771 | 35938 ft | 421 kts | 336° |
| 2026-04-25 19:52 | 20.85391 | -77.53406 | 35938 ft | 422 kts | 336° |
| 2026-04-25 19:52 | 20.91049 | -77.55032 | 35938 ft | 422 kts | 336° |
| 2026-04-25 19:53 | 20.96683 | -77.56653 | 35938 ft | 422 kts | 336° |
| 2026-04-25 19:53 | 21.02377 | -77.58291 | 35938 ft | 421 kts | 336° |
| 2026-04-25 19:54 | 21.08050 | -77.59926 | 35938 ft | 421 kts | 336° |
| 2026-04-25 19:54 | 21.13747 | -77.61561 | 35938 ft | 421 kts | 336° |
| 2026-04-25 19:55 | 21.19395 | -77.63179 | 35938 ft | 421 kts | 336° |
| 2026-04-25 19:55 | 21.25052 | -77.64806 | 35938 ft | 420 kts | 335° |
| 2026-04-25 19:56 | 21.30717 | -77.66460 | 35939 ft | 419 kts | 335° |
| 2026-04-25 19:56 | 21.36322 | -77.68099 | 35938 ft | 419 kts | 335° |
| 2026-04-25 19:57 | 21.41959 | -77.69737 | 35938 ft | 419 kts | 335° |
| 2026-04-25 19:57 | 21.47573 | -77.71364 | 35939 ft | 418 kts | 335° |
| 2026-04-25 19:58 | 21.53190 | -77.72992 | 35938 ft | 417 kts | 335° |
| 2026-04-25 19:58 | 21.58777 | -77.74612 | 35939 ft | 417 kts | 335° |
| 2026-04-25 19:59 | 21.64382 | -77.76236 | 35938 ft | 417 kts | 335° |
| 2026-04-25 19:59 | 21.69978 | -77.77859 | 35938 ft | 417 kts | 335° |
| 2026-04-25 20:00 | 21.75560 | -77.79478 | 35938 ft | 417 kts | 335° |
| 2026-04-25 20:00 | 21.81162 | -77.81112 | 35937 ft | 415 kts | 334° |
| 2026-04-25 20:01 | 21.89119 | -77.84397 | 35937 ft | 403 kts | 324° |
| 2026-04-25 20:01 | 21.93986 | -77.87328 | 35938 ft | 397 kts | 319° |
| 2026-04-25 20:02 | 21.98425 | -77.90726 | 35938 ft | 392 kts | 315° |
| 2026-04-25 20:02 | 22.02777 | -77.94309 | 35938 ft | 392 kts | 315° |
| 2026-04-25 20:03 | 22.07104 | -77.97886 | 35938 ft | 392 kts | 315° |
| 2026-04-25 20:03 | 22.11449 | -78.01478 | 35938 ft | 392 kts | 315° |
| 2026-04-25 20:04 | 22.15818 | -78.05073 | 35938 ft | 392 kts | 315° |
| 2026-04-25 20:04 | 22.20156 | -78.08657 | 35938 ft | 392 kts | 315° |
| 2026-04-25 20:05 | 22.24479 | -78.12241 | 35938 ft | 392 kts | 315° |
| 2026-04-25 20:05 | 22.28791 | -78.15822 | 35938 ft | 393 kts | 315° |
| 2026-04-25 20:06 | 22.33116 | -78.19417 | 35938 ft | 393 kts | 315° |
| 2026-04-25 20:06 | 22.37474 | -78.23042 | 35938 ft | 393 kts | 315° |
| 2026-04-25 20:07 | 22.41787 | -78.26633 | 35939 ft | 393 kts | 315° |
| 2026-04-25 20:07 | 22.46100 | -78.30228 | 35938 ft | 393 kts | 315° |
| 2026-04-25 20:08 | 22.50430 | -78.33839 | 35938 ft | 393 kts | 315° |
| 2026-04-25 20:08 | 22.54781 | -78.37460 | 35938 ft | 393 kts | 315° |
| 2026-04-25 20:09 | 22.59123 | -78.41064 | 35938 ft | 394 kts | 315° |
| 2026-04-25 20:09 | 22.63469 | -78.44673 | 35938 ft | 394 kts | 315° |
| 2026-04-25 20:10 | 22.67833 | -78.48303 | 35938 ft | 394 kts | 315° |
| 2026-04-25 20:10 | 22.72258 | -78.51819 | 35937 ft | 399 kts | 319° |
| 2026-04-25 20:11 | 22.77135 | -78.54757 | 35940 ft | 407 kts | 327° |
| 2026-04-25 20:11 | 22.82497 | -78.56983 | 35947 ft | 417 kts | 334° |
| 2026-04-25 20:12 | 22.88232 | -78.58404 | 35957 ft | 425 kts | 340° |
| 2026-04-25 20:12 | 22.93063 | -78.59320 | 35962 ft | 424 kts | 341° |
| 2026-04-25 20:13 | 22.99825 | -78.60585 | 35966 ft | 423 kts | 341° |
| 2026-04-25 20:13 | 23.05678 | -78.61688 | 35966 ft | 424 kts | 341° |
| 2026-04-25 20:14 | 23.11490 | -78.62781 | 35967 ft | 424 kts | 341° |
| 2026-04-25 20:14 | 23.17316 | -78.63869 | 35967 ft | 424 kts | 341° |
| 2026-04-25 20:15 | 23.23139 | -78.64964 | 35966 ft | 425 kts | 341° |
| 2026-04-25 20:15 | 23.28936 | -78.66079 | 35966 ft | 424 kts | 340° |
| 2026-04-25 20:16 | 23.34768 | -78.67201 | 35966 ft | 424 kts | 341° |
| 2026-04-25 20:16 | 23.40597 | -78.68313 | 35967 ft | 424 kts | 341° |
| 2026-04-25 20:17 | 23.46403 | -78.69415 | 35970 ft | 423 kts | 341° |
| 2026-04-25 20:17 | 23.52244 | -78.70522 | 35975 ft | 423 kts | 341° |
| 2026-04-25 20:18 | 23.58018 | -78.71618 | 35979 ft | 423 kts | 341° |
| 2026-04-25 20:18 | 23.63844 | -78.72725 | 35980 ft | 424 kts | 341° |
| 2026-04-25 20:19 | 23.69678 | -78.73833 | 35980 ft | 425 kts | 341° |
| 2026-04-25 20:19 | 23.75507 | -78.74940 | 35981 ft | 425 kts | 341° |
| 2026-04-25 20:20 | 23.81296 | -78.76039 | 35981 ft | 425 kts | 341° |
| 2026-04-25 20:20 | 23.87159 | -78.77154 | 35981 ft | 425 kts | 341° |
| 2026-04-25 20:21 | 23.92958 | -78.78336 | 35983 ft | 421 kts | 338° |
| 2026-04-25 20:21 | 23.98551 | -78.80074 | 35985 ft | 415 kts | 332° |
| 2026-04-25 20:22 | 24.02984 | -78.81994 | 35988 ft | 411 kts | 328° |
| 2026-04-25 20:22 | 24.08898 | -78.85365 | 35990 ft | 407 kts | 323° |
| 2026-04-25 20:23 | 24.13829 | -78.88512 | 35991 ft | 407 kts | 323° |
| 2026-04-25 20:23 | 24.18721 | -78.91644 | 35991 ft | 406 kts | 323° |
| 2026-04-25 20:24 | 24.23656 | -78.94813 | 35991 ft | 407 kts | 323° |
| 2026-04-25 20:24 | 24.28569 | -78.97977 | 35991 ft | 407 kts | 323° |
| 2026-04-25 20:25 | 24.33458 | -79.01128 | 35990 ft | 407 kts | 323° |
| 2026-04-25 20:25 | 24.38316 | -79.04264 | 35988 ft | 407 kts | 323° |
| 2026-04-25 20:26 | 24.43203 | -79.07422 | 35986 ft | 406 kts | 323° |
| 2026-04-25 20:26 | 24.48092 | -79.10583 | 35984 ft | 406 kts | 323° |
| 2026-04-25 20:27 | 24.52940 | -79.13722 | 35981 ft | 407 kts | 323° |
| 2026-04-25 20:27 | 24.57833 | -79.16891 | 35981 ft | 407 kts | 323° |
| 2026-04-25 20:28 | 24.62703 | -79.20051 | 35980 ft | 408 kts | 323° |
| 2026-04-25 20:28 | 24.67593 | -79.23225 | 35980 ft | 407 kts | 323° |
| 2026-04-25 20:29 | 24.72478 | -79.26398 | 35980 ft | 408 kts | 323° |
| 2026-04-25 20:29 | 24.77368 | -79.29578 | 35980 ft | 409 kts | 323° |
| 2026-04-25 20:30 | 24.82240 | -79.32750 | 35981 ft | 409 kts | 324° |
| 2026-04-25 20:30 | 24.87141 | -79.35944 | 35981 ft | 409 kts | 324° |
| 2026-04-25 20:31 | 24.92040 | -79.39138 | 35980 ft | 410 kts | 324° |
| 2026-04-25 20:31 | 24.96973 | -79.42359 | 35981 ft | 410 kts | 324° |
| 2026-04-25 20:32 | 25.01905 | -79.45580 | 35980 ft | 410 kts | 324° |
| 2026-04-25 20:32 | 25.06797 | -79.48780 | 35980 ft | 410 kts | 324° |
| 2026-04-25 20:33 | 25.11723 | -79.52000 | 35981 ft | 411 kts | 324° |
| 2026-04-25 20:33 | 25.15824 | -79.54669 | 35981 ft | 411 kts | 325° |
| 2026-04-25 20:34 | 25.21593 | -79.58437 | 35981 ft | 411 kts | 325° |
| 2026-04-25 20:34 | 25.26525 | -79.61671 | 35980 ft | 412 kts | 325° |
| 2026-04-25 20:35 | 25.31437 | -79.64896 | 35980 ft | 412 kts | 325° |
| 2026-04-25 20:35 | 25.36377 | -79.68167 | 35981 ft | 413 kts | 325° |
| 2026-04-25 20:36 | 25.41303 | -79.71429 | 35980 ft | 413 kts | 325° |
| 2026-04-25 20:36 | 25.46239 | -79.74689 | 35980 ft | 413 kts | 325° |
| 2026-04-25 20:37 | 25.51174 | -79.77946 | 35980 ft | 414 kts | 326° |
| 2026-04-25 20:37 | 25.56122 | -79.81213 | 35981 ft | 414 kts | 326° |
| 2026-04-25 20:38 | 25.61089 | -79.84495 | 35981 ft | 414 kts | 326° |
| 2026-04-25 20:38 | 25.66028 | -79.87761 | 35981 ft | 414 kts | 326° |
| 2026-04-25 20:39 | 25.70979 | -79.91039 | 35981 ft | 415 kts | 326° |
| 2026-04-25 20:39 | 25.75111 | -79.93776 | 35981 ft | 414 kts | 326° |
| 2026-04-25 20:40 | 25.80900 | -79.97615 | 35981 ft | 415 kts | 326° |
| 2026-04-25 20:40 | 25.85857 | -80.00906 | 35981 ft | 415 kts | 326° |
| 2026-04-25 20:41 | 25.90805 | -80.04193 | 35980 ft | 415 kts | 326° |
| 2026-04-25 20:41 | 25.95775 | -80.07497 | 35978 ft | 415 kts | 326° |
| 2026-04-25 20:42 | 26.00709 | -80.10780 | 35977 ft | 415 kts | 326° |
| 2026-04-25 20:42 | 26.05696 | -80.14101 | 35975 ft | 415 kts | 326° |
| 2026-04-25 20:43 | 26.10636 | -80.17395 | 35975 ft | 415 kts | 326° |
| 2026-04-25 20:43 | 26.15671 | -80.20588 | 35973 ft | 416 kts | 330° |
| 2026-04-25 20:44 | 26.20886 | -80.23365 | 35973 ft | 418 kts | 332° |
| 2026-04-25 20:44 | 26.26146 | -80.26098 | 35822 ft | 417 kts | 332° |
| 2026-04-25 20:45 | 26.28787 | -80.27472 | 35171 ft | 419 kts | 332° |
| 2026-04-25 20:45 | 26.31446 | -80.28859 | 34184 ft | 425 kts | 332° |
| 2026-04-25 20:45 | 26.34122 | -80.30256 | 33157 ft | 431 kts | 333° |
| 2026-04-25 20:45 | 26.36824 | -80.31668 | 32104 ft | 437 kts | 333° |
| 2026-04-25 20:46 | 26.39595 | -80.33115 | 30986 ft | 443 kts | 333° |
| 2026-04-25 20:46 | 26.42390 | -80.34576 | 29843 ft | 449 kts | 334° |
| 2026-04-25 20:46 | 26.45241 | -80.36062 | 29316 ft | 440 kts | 334° |
| 2026-04-25 20:46 | 26.47975 | -80.37485 | 29118 ft | 435 kts | 334° |
| 2026-04-25 20:47 | 26.50727 | -80.38921 | 28864 ft | 435 kts | 334° |
| 2026-04-25 20:47 | 26.53451 | -80.40346 | 28614 ft | 433 kts | 334° |
| 2026-04-25 20:47 | 26.56190 | -80.41780 | 28361 ft | 431 kts | 334° |
| 2026-04-25 20:47 | 26.58867 | -80.43182 | 28113 ft | 429 kts | 334° |
| 2026-04-25 20:48 | 26.61619 | -80.44582 | 27977 ft | 428 kts | 335° |
| 2026-04-25 20:48 | 26.64386 | -80.45820 | 27968 ft | 429 kts | 338° |
| 2026-04-25 20:48 | 26.67192 | -80.46993 | 27792 ft | 429 kts | 338° |
| 2026-04-25 20:48 | 26.69968 | -80.48138 | 27543 ft | 426 kts | 338° |
| 2026-04-25 20:49 | 26.72758 | -80.49288 | 27291 ft | 425 kts | 339° |
| 2026-04-25 20:49 | 26.75521 | -80.50428 | 27040 ft | 424 kts | 339° |
| 2026-04-25 20:49 | 26.78312 | -80.51580 | 26786 ft | 422 kts | 339° |
| 2026-04-25 20:49 | 26.81052 | -80.52712 | 26536 ft | 420 kts | 339° |
| 2026-04-25 20:50 | 26.83770 | -80.53837 | 26287 ft | 418 kts | 339° |
| 2026-04-25 20:50 | 26.86509 | -80.54971 | 26035 ft | 417 kts | 339° |
| 2026-04-25 20:50 | 26.89237 | -80.56100 | 25783 ft | 415 kts | 339° |
| 2026-04-25 20:50 | 26.91960 | -80.57230 | 25529 ft | 414 kts | 339° |
| 2026-04-25 20:51 | 26.94627 | -80.58336 | 25279 ft | 413 kts | 339° |
| 2026-04-25 20:51 | 26.97329 | -80.59457 | 25007 ft | 411 kts | 339° |
| 2026-04-25 20:51 | 26.99987 | -80.60560 | 24724 ft | 409 kts | 339° |
| 2026-04-25 20:51 | 27.02670 | -80.61674 | 24368 ft | 407 kts | 339° |
| 2026-04-25 20:52 | 27.05304 | -80.62768 | 23906 ft | 405 kts | 339° |
| 2026-04-25 20:52 | 27.07064 | -80.63500 | 23580 ft | 402 kts | 339° |
| 2026-04-25 20:52 | 27.10572 | -80.64957 | 22925 ft | 398 kts | 339° |
| 2026-04-25 20:52 | 27.13132 | -80.66030 | 22830 ft | 396 kts | 338° |
| 2026-04-25 20:53 | 27.15734 | -80.67130 | 22848 ft | 398 kts | 338° |
| 2026-04-25 20:53 | 27.18340 | -80.68230 | 22864 ft | 398 kts | 338° |
| 2026-04-25 20:53 | 27.20944 | -80.69325 | 22876 ft | 399 kts | 338° |
| 2026-04-25 20:53 | 27.23530 | -80.70411 | 22874 ft | 399 kts | 338° |
| 2026-04-25 20:54 | 27.26118 | -80.71497 | 22651 ft | 401 kts | 338° |
| 2026-04-25 20:54 | 27.28752 | -80.72600 | 22063 ft | 398 kts | 338° |
| 2026-04-25 20:54 | 27.31326 | -80.73679 | 21560 ft | 394 kts | 338° |
| 2026-04-25 20:54 | 27.33892 | -80.74757 | 21117 ft | 388 kts | 338° |
| 2026-04-25 20:55 | 27.36371 | -80.75798 | 20978 ft | 374 kts | 338° |
| 2026-04-25 20:55 | 27.38772 | -80.76820 | 20955 ft | 366 kts | 337° |
| 2026-04-25 20:55 | 27.41127 | -80.77841 | 20959 ft | 368 kts | 337° |
| 2026-04-25 20:55 | 27.43540 | -80.78890 | 20960 ft | 368 kts | 337° |
| 2026-04-25 20:56 | 27.45918 | -80.79923 | 20961 ft | 368 kts | 337° |
| 2026-04-25 20:56 | 27.48293 | -80.80952 | 20961 ft | 368 kts | 337° |
| 2026-04-25 20:56 | 27.50701 | -80.81995 | 20961 ft | 368 kts | 337° |
| 2026-04-25 20:56 | 27.53088 | -80.83030 | 20961 ft | 367 kts | 337° |
| 2026-04-25 20:57 | 27.55477 | -80.84069 | 20959 ft | 367 kts | 336° |
| 2026-04-25 20:57 | 27.57818 | -80.85205 | 20956 ft | 367 kts | 334° |
| 2026-04-25 20:57 | 27.60152 | -80.86420 | 20949 ft | 367 kts | 334° |
| 2026-04-25 20:57 | 27.62453 | -80.87627 | 20939 ft | 367 kts | 334° |
| 2026-04-25 20:58 | 27.64772 | -80.88844 | 20886 ft | 367 kts | 334° |
| 2026-04-25 20:58 | 27.67084 | -80.90058 | 20367 ft | 368 kts | 333° |
| 2026-04-25 20:58 | 27.69422 | -80.91283 | 19914 ft | 364 kts | 333° |
| 2026-04-25 20:58 | 27.71693 | -80.92472 | 19482 ft | 360 kts | 333° |
| 2026-04-25 20:59 | 27.73954 | -80.93658 | 19038 ft | 356 kts | 333° |
| 2026-04-25 20:59 | 27.76180 | -80.94826 | 18607 ft | 353 kts | 333° |
| 2026-04-25 20:59 | 27.78411 | -80.95995 | 18182 ft | 349 kts | 333° |
| 2026-04-25 20:59 | 27.80588 | -80.97138 | 17763 ft | 346 kts | 333° |
| 2026-04-25 21:00 | 27.82792 | -80.98296 | 17342 ft | 343 kts | 333° |
| 2026-04-25 21:00 | 27.84240 | -80.99057 | 17061 ft | 341 kts | 333° |
| 2026-04-25 21:00 | 27.89219 | -81.01675 | 16107 ft | 335 kts | 333° |
| 2026-04-25 21:01 | 27.91328 | -81.02786 | 15693 ft | 333 kts | 333° |
| 2026-04-25 21:01 | 27.93421 | -81.03855 | 15293 ft | 330 kts | 335° |
| 2026-04-25 21:01 | 27.95545 | -81.04798 | 14900 ft | 328 kts | 337° |
| 2026-04-25 21:01 | 27.97670 | -81.05697 | 14516 ft | 325 kts | 338° |
| 2026-04-25 21:02 | 27.99788 | -81.06588 | 14123 ft | 323 kts | 338° |
| 2026-04-25 21:02 | 28.01866 | -81.07462 | 13711 ft | 321 kts | 338° |
| 2026-04-25 21:02 | 28.03954 | -81.08345 | 13293 ft | 320 kts | 338° |
| 2026-04-25 21:02 | 28.06039 | -81.09228 | 12895 ft | 318 kts | 338° |
| 2026-04-25 21:03 | 28.08116 | -81.10107 | 12502 ft | 316 kts | 338° |
| 2026-04-25 21:03 | 28.10148 | -81.10991 | 12103 ft | 314 kts | 337° |
| 2026-04-25 21:03 | 28.12188 | -81.11888 | 11705 ft | 312 kts | 337° |
| 2026-04-25 21:03 | 28.14226 | -81.12783 | 11291 ft | 312 kts | 337° |
| 2026-04-25 21:04 | 28.16244 | -81.13671 | 10870 ft | 311 kts | 337° |
| 2026-04-25 21:04 | 28.18266 | -81.14562 | 10448 ft | 311 kts | 337° |
| 2026-04-25 21:04 | 28.20274 | -81.15446 | 10144 ft | 305 kts | 338° |
| 2026-04-25 21:04 | 28.22213 | -81.16299 | 10100 ft | 291 kts | 338° |
| 2026-04-25 21:05 | 28.24045 | -81.17106 | 10037 ft | 280 kts | 337° |
| 2026-04-25 21:05 | 28.25860 | -81.17893 | 9739 ft | 280 kts | 340° |
| 2026-04-25 21:05 | 28.27743 | -81.18430 | 9387 ft | 281 kts | 350° |
| 2026-04-25 21:05 | 28.29707 | -81.18612 | 9043 ft | 282 kts | 357° |
| 2026-04-25 21:06 | 28.31642 | -81.18652 | 8709 ft | 281 kts | 358° |
| 2026-04-25 21:06 | 28.33613 | -81.18669 | 8383 ft | 280 kts | 358° |
| 2026-04-25 21:06 | 28.35540 | -81.18690 | 8199 ft | 272 kts | 358° |
| 2026-04-25 21:06 | 28.36769 | -81.18707 | 8191 ft | 263 kts | 358° |
| 2026-04-25 21:07 | 28.39147 | -81.18745 | 8145 ft | 247 kts | 358° |
| 2026-04-25 21:07 | 28.40857 | -81.18765 | 7874 ft | 248 kts | 358° |
| 2026-04-25 21:07 | 28.42589 | -81.18778 | 7598 ft | 247 kts | 358° |
| 2026-04-25 21:07 | 28.44303 | -81.18792 | 7331 ft | 246 kts | 359° |
| 2026-04-25 21:08 | 28.46014 | -81.18804 | 7064 ft | 246 kts | 359° |
| 2026-04-25 21:08 | 28.47693 | -81.18817 | 6860 ft | 241 kts | 359° |
| 2026-04-25 21:08 | 28.49376 | -81.18830 | 6584 ft | 239 kts | 359° |
| 2026-04-25 21:08 | 28.51060 | -81.18844 | 6087 ft | 248 kts | 359° |
| 2026-04-25 21:09 | 28.54600 | -81.18875 | 5086 ft | 262 kts | 359° |
| 2026-04-25 21:09 | 28.56411 | -81.18896 | 4588 ft | 262 kts | 359° |
| 2026-04-25 21:09 | 28.58224 | -81.18918 | 4143 ft | 258 kts | 359° |
| 2026-04-25 21:10 | 28.60001 | -81.18939 | 3992 ft | 249 kts | 359° |
| 2026-04-25 21:10 | 28.61671 | -81.18958 | 3981 ft | 234 kts | 359° |
| 2026-04-25 21:10 | 28.63248 | -81.19029 | 3971 ft | 219 kts | 347° |
| 2026-04-25 21:10 | 28.64509 | -81.19847 | 3969 ft | 207 kts | 307° |
| 2026-04-25 21:11 | 28.65089 | -81.21321 | 3820 ft | 204 kts | 276° |
| 2026-04-25 21:11 | 28.65075 | -81.22902 | 3631 ft | 198 kts | 264° |
| 2026-04-25 21:11 | 28.64937 | -81.24456 | 3438 ft | 193 kts | 263° |
| 2026-04-25 21:11 | 28.64814 | -81.25951 | 3280 ft | 190 kts | 264° |
| 2026-04-25 21:12 | 28.64498 | -81.27402 | 3178 ft | 189 kts | 236° |
| 2026-04-25 21:12 | 28.63499 | -81.28336 | 3064 ft | 189 kts | 197° |
| 2026-04-25 21:12 | 28.62207 | -81.28537 | 2989 ft | 189 kts | 181° |
| 2026-04-25 21:12 | 28.61323 | -81.28513 | 2989 ft | 189 kts | 178° |
| 2026-04-25 21:13 | 28.59577 | -81.28423 | 2968 ft | 189 kts | 179° |
| 2026-04-25 21:13 | 28.58276 | -81.28384 | 2785 ft | 185 kts | 180° |
| 2026-04-25 21:13 | 28.56981 | -81.28368 | 2535 ft | 183 kts | 180° |
| 2026-04-25 21:13 | 28.55752 | -81.28358 | 2289 ft | 175 kts | 180° |
| 2026-04-25 21:14 | 28.54553 | -81.28348 | 2071 ft | 166 kts | 180° |
| 2026-04-25 21:14 | 28.53440 | -81.28337 | 1845 ft | 157 kts | 180° |
| 2026-04-25 21:14 | 28.52384 | -81.28327 | 1632 ft | 147 kts | 181° |
| 2026-04-25 21:14 | 28.51381 | -81.28318 | 1455 ft | 142 kts | 181° |
| 2026-04-25 21:15 | 28.50384 | -81.28310 | 1269 ft | 142 kts | 181° |
| 2026-04-25 21:15 | 28.49405 | -81.28301 | 1084 ft | 142 kts | 181° |
| 2026-04-25 21:15 | 28.48420 | -81.28291 | 898 ft | 142 kts | 181° |
| 2026-04-25 21:15 | 28.47428 | -81.28282 | 710 ft | 142 kts | 180° |
| 2026-04-25 21:16 | 28.46441 | -81.28272 | 522 ft | 142 kts | 180° |
| 2026-04-25 21:16 | 28.45448 | -81.28262 | 332 ft | 142 kts | 180° |
| 2026-04-25 21:16 | 28.44455 | -81.28256 | 121 ft | 141 kts | 180° |
| 2026-04-25 21:16 | 28.43556 | -81.28255 | 88 ft | 103 kts | 179° |
| 2026-04-25 21:17 | 28.43079 | -81.28244 | 86 ft | 47 kts | 179° |
| 2026-04-25 21:17 | 28.42845 | -81.28240 | 86 ft | 23 kts | 179° |
| 2026-04-25 21:17 | 28.42689 | -81.28239 | 86 ft | 17 kts | 182° |
| 2026-04-25 21:17 | 28.42582 | -81.28271 | 86 ft | 13 kts | 208° |
| 2026-04-25 21:18 | 28.42532 | -81.28324 | 87 ft | 2 kts | 254° |
| 2026-04-25 21:18 | 28.42530 | -81.28329 | 87 ft | 1 kts | 254° |
| 2026-04-25 21:18 | 28.42528 | -81.28339 | 87 ft | 4 kts | 254° |
| 2026-04-25 21:18 | 28.42511 | -81.28400 | 86 ft | 13 kts | 250° |
| 2026-04-25 21:19 | 28.42471 | -81.28529 | 84 ft | 19 kts | 250° |
| 2026-04-25 21:19 | 28.42424 | -81.28673 | 84 ft | 19 kts | 250° |
| 2026-04-25 21:19 | 28.42375 | -81.28822 | 84 ft | 20 kts | 250° |
| 2026-04-25 21:19 | 28.42328 | -81.28979 | 84 ft | 21 kts | 251° |
| 2026-04-25 21:20 | 28.42291 | -81.29144 | 84 ft | 21 kts | 263° |
| 2026-04-25 21:20 | 28.42285 | -81.29243 | 85 ft | 16 kts | 268° |
| 2026-04-25 21:20 | 28.42283 | -81.29420 | 87 ft | 16 kts | 270° |
| 2026-04-25 21:20 | 28.42282 | -81.29554 | 87 ft | 17 kts | 269° |
| 2026-04-25 21:21 | 28.42280 | -81.29699 | 87 ft | 18 kts | 269° |
| 2026-04-25 21:21 | 28.42333 | -81.29796 | 87 ft | 11 kts | 354° |
| 2026-04-25 21:21 | 28.42451 | -81.29796 | 87 ft | 19 kts | 1° |
| 2026-04-25 21:21 | 28.42579 | -81.29810 | 87 ft | 18 kts | 325° |
| 2026-04-25 21:22 | 28.42647 | -81.29908 | 87 ft | 15 kts | 321° |
| 2026-04-25 21:22 | 28.42718 | -81.29971 | 87 ft | 11 kts | 300° |
| 2026-04-25 21:22 | 28.42758 | -81.30039 | 87 ft | 4 kts | 300° |
| 2026-04-25 21:22 | 28.42758 | -81.30041 | 87 ft | 0 kts | 300° |